createdAt,value
2022-09-28T00:01:29.764Z,98708.60
2022-09-28T00:03:59.677Z,98715.00
2022-09-28T00:06:30.630Z,98715.80
2022-09-28T00:09:02.476Z,98713.40
2022-09-28T00:11:33.393Z,98714.40
2022-09-28T00:14:03.893Z,98714.00
2022-09-28T00:16:36.942Z,98714.00
2022-09-28T00:19:08.334Z,98711.60
2022-09-28T00:21:42.895Z,98709.00
2022-09-28T00:24:25.223Z,98706.60
2022-09-28T00:27:01.588Z,98703.20
2022-09-28T00:29:36.396Z,98702.00
2022-09-28T00:32:13.203Z,98713.20
2022-09-28T00:34:49.266Z,98712.40
2022-09-28T00:37:19.598Z,98710.80
2022-09-28T00:39:49.045Z,98706.00
2022-09-28T00:42:24.531Z,98706.80
2022-09-28T00:45:00.378Z,98710.00
2022-09-28T00:47:49.971Z,98713.20
2022-09-28T00:50:27.740Z,98709.60
2022-09-28T00:53:27.649Z,98714.60
2022-09-28T00:56:01.313Z,98713.40
2022-09-28T00:58:36.175Z,98712.20
2022-09-28T01:01:07.118Z,98703.80
2022-09-28T01:03:40.348Z,98705.00
2022-09-28T01:06:09.704Z,98710.60
2022-09-28T01:08:45.420Z,98710.20
2022-09-28T01:11:14.563Z,98707.80
2022-09-28T01:13:45.252Z,98706.80
2022-09-28T01:16:35.197Z,98700.80
2022-09-28T01:20:09.793Z,98701.80
2022-09-28T01:22:54.602Z,98692.40
2022-09-28T01:25:32.689Z,98689.80
2022-09-28T01:28:09.240Z,98687.00
2022-09-28T01:31:15.126Z,98690.20
2022-09-28T01:33:50.553Z,98691.80
2022-09-28T01:36:39.615Z,98690.60
2022-09-28T01:39:15.619Z,98688.40
2022-09-28T01:41:49.436Z,98692.00
2022-09-28T01:44:23.086Z,98689.00
2022-09-28T01:46:54.903Z,98692.80
2022-09-28T01:49:32.181Z,98688.60
2022-09-28T01:52:32.528Z,98684.20
2022-09-28T01:55:45.342Z,98682.00
2022-09-28T01:58:46.491Z,98681.00
2022-09-28T02:01:27.389Z,98678.80
2022-09-28T02:04:15.546Z,98686.00
2022-09-28T02:07:18.908Z,98688.20
2022-09-28T02:09:56.160Z,98689.40
2022-09-28T02:12:51.445Z,98694.60
2022-09-28T02:15:27.724Z,98697.20
2022-09-28T02:17:58.231Z,98698.60
2022-09-28T02:20:34.438Z,98698.20
2022-09-28T02:23:07.161Z,98693.80
2022-09-28T02:25:51.223Z,98694.40
2022-09-28T02:28:23.850Z,98686.20
2022-09-28T02:30:53.562Z,98680.80
2022-09-28T02:33:48.859Z,98681.00
2022-09-28T02:36:19.385Z,98689.00
2022-09-28T02:38:50.429Z,98685.80
2022-09-28T02:41:38.428Z,98688.00
2022-09-28T02:44:41.473Z,98689.60
2022-09-28T02:47:45.386Z,98684.20
2022-09-28T02:50:42.543Z,98696.40
2022-09-28T02:53:55.295Z,98693.80
2022-09-28T02:56:58.228Z,98690.80
2022-09-28T02:59:50.809Z,98689.40
2022-09-28T03:02:50.377Z,98689.20
2022-09-28T03:05:31.743Z,98686.60
2022-09-28T03:08:23.760Z,98691.60
2022-09-28T03:11:15.633Z,98690.80
2022-09-28T03:13:45.657Z,98688.60
2022-09-28T03:16:18.690Z,98685.40
2022-09-28T03:18:48.569Z,98689.20
2022-09-28T03:21:16.959Z,98688.40
2022-09-28T03:23:52.260Z,98688.00
2022-09-28T03:26:20.721Z,98692.60
2022-09-28T03:28:49.751Z,98689.00
2022-09-28T03:31:24.714Z,98688.80
2022-09-28T03:33:56.563Z,98690.60
2022-09-28T03:36:25.725Z,98686.80
2022-09-28T03:38:56.233Z,98692.40
2022-09-28T03:41:28.166Z,98685.80
2022-09-28T03:43:57.905Z,98688.00
2022-09-28T03:46:27.481Z,98682.60
2022-09-28T03:48:59.837Z,98683.40
2022-09-28T03:51:30.891Z,98687.80
2022-09-28T03:53:59.450Z,98684.20
2022-09-28T03:56:27.387Z,98682.80
2022-09-28T03:58:55.847Z,98688.80
2022-09-28T04:01:23.915Z,98688.40
2022-09-28T04:03:58.675Z,98688.20
2022-09-28T04:06:28.376Z,98692.20
2022-09-28T04:08:57.475Z,98692.80
2022-09-28T04:11:26.980Z,98693.80
2022-09-28T04:13:59.903Z,98693.80
2022-09-28T04:16:32.750Z,98694.00
2022-09-28T04:19:10.675Z,98689.40
2022-09-28T04:21:58.432Z,98692.80
2022-09-28T04:24:26.859Z,98696.60
2022-09-28T04:27:15.536Z,98696.80
2022-09-28T04:29:44.070Z,98696.20
2022-09-28T04:32:15.364Z,98696.80
2022-09-28T04:34:44.503Z,98696.60
2022-09-28T04:37:15.247Z,98700.20
2022-09-28T04:39:48.212Z,98691.40
2022-09-28T04:42:18.885Z,98687.60
2022-09-28T04:44:47.947Z,98687.80
2022-09-28T04:47:20.347Z,98687.60
2022-09-28T04:50:01.012Z,98682.20
2022-09-28T04:52:40.688Z,98679.60
2022-09-28T04:55:13.036Z,98681.20
2022-09-28T04:57:44.123Z,98687.80
2022-09-28T05:00:13.743Z,98689.20
2022-09-28T05:02:51.549Z,98696.40
2022-09-28T05:05:44.722Z,98693.60
2022-09-28T05:08:35.406Z,98693.40
2022-09-28T05:11:07.800Z,98691.80
2022-09-28T05:13:45.618Z,98689.20
2022-09-28T05:16:17.626Z,98690.40
2022-09-28T05:19:10.933Z,98696.60
2022-09-28T05:21:39.541Z,98693.40
2022-09-28T05:24:07.740Z,98698.60
2022-09-28T05:26:40.136Z,98705.80
2022-09-28T05:29:10.957Z,98705.20
2022-09-28T05:31:57.482Z,98696.80
2022-09-28T05:34:51.974Z,98705.60
2022-09-28T05:37:28.219Z,98706.60
2022-09-28T05:39:57.496Z,98700.60
2022-09-28T05:42:26.650Z,98700.40
2022-09-28T05:44:54.907Z,98707.20
2022-09-28T05:47:23.097Z,98710.20
2022-09-28T05:49:52.632Z,98713.80
2022-09-28T05:52:24.380Z,98723.40
2022-09-28T05:54:53.740Z,98726.60
2022-09-28T05:57:22.936Z,98726.20
2022-09-28T05:59:51.001Z,98730.20
2022-09-28T06:02:23.953Z,98736.80
2022-09-28T06:04:52.154Z,98732.60
2022-09-28T06:07:40.928Z,98737.00
2022-09-28T06:10:11.121Z,98738.80
2022-09-28T06:12:48.775Z,98738.00
2022-09-28T06:15:19.033Z,98740.20
2022-09-28T06:17:48.607Z,98740.20
2022-09-28T06:20:44.165Z,98737.40
2022-09-28T06:23:16.522Z,98740.20
2022-09-28T06:25:46.256Z,98745.40
2022-09-28T06:28:15.440Z,98750.40
2022-09-28T06:30:45.278Z,98747.20
2022-09-28T06:33:19.055Z,98749.40
2022-09-28T06:35:48.050Z,98748.00
2022-09-28T06:38:17.551Z,98748.40
2022-09-28T06:40:47.048Z,98751.80
2022-09-28T06:43:15.610Z,98748.40
2022-09-28T06:46:05.051Z,98743.20
2022-09-28T06:48:59.380Z,98746.40
2022-09-28T06:52:04.042Z,98744.40
2022-09-28T06:54:58.989Z,98745.00
2022-09-28T06:57:50.440Z,98749.40
2022-09-28T07:00:19.534Z,98751.40
2022-09-28T07:02:48.560Z,98758.00
2022-09-28T07:05:50.244Z,98767.00
2022-09-28T07:08:37.143Z,98763.80
2022-09-28T07:11:27.301Z,98769.00
2022-09-28T07:14:32.629Z,98772.60
2022-09-28T07:17:14.463Z,98767.80
2022-09-28T07:19:44.954Z,98776.00
2022-09-28T07:22:18.724Z,98772.20
2022-09-28T07:24:49.599Z,98772.80
2022-09-28T07:27:43.893Z,98772.60
2022-09-28T07:30:45.777Z,98772.60
2022-09-28T07:33:18.917Z,98767.60
2022-09-28T07:36:09.417Z,98768.80
2022-09-28T07:38:38.389Z,98765.40
2022-09-28T07:41:12.280Z,98767.00
2022-09-28T07:43:51.473Z,98767.60
2022-09-28T07:46:21.601Z,98773.00
2022-09-28T07:49:12.392Z,98775.40
2022-09-28T07:51:56.547Z,98780.60
2022-09-28T07:54:45.451Z,98783.80
2022-09-28T07:57:48.893Z,98785.60
2022-09-28T08:00:52.331Z,98789.60
2022-09-28T08:03:23.662Z,98793.60
2022-09-28T08:08:35.774Z,98797.40
2022-09-28T08:11:10.384Z,98800.20
2022-09-28T08:13:56.203Z,98803.60
2022-09-28T08:16:53.341Z,98801.80
2022-09-28T08:20:01.357Z,98802.40
2022-09-28T08:22:32.457Z,98805.20
2022-09-28T08:25:03.124Z,98805.00
2022-09-28T08:27:31.622Z,98806.80
2022-09-28T08:29:59.678Z,98806.40
2022-09-28T08:32:39.788Z,98806.60
2022-09-28T08:35:29.391Z,98808.00
2022-09-28T08:38:14.043Z,98806.80
2022-09-28T08:41:49.703Z,98805.60
2022-09-28T08:45:10.509Z,98802.00
2022-09-28T08:48:30.860Z,98802.60
2022-09-28T08:51:44.633Z,98800.60
2022-09-28T08:54:57.977Z,98803.20
2022-09-28T08:57:47.787Z,98808.80
2022-09-28T09:00:29.770Z,98809.80
2022-09-28T09:02:58.073Z,98812.00
2022-09-28T09:05:58.547Z,98815.00
2022-09-28T09:09:24.138Z,98809.60
2022-09-28T09:12:19.578Z,98806.00
2022-09-28T09:15:25.702Z,98806.60
2022-09-28T09:18:07.102Z,98807.80
2022-09-28T09:21:37.556Z,98806.20
2022-09-28T09:24:27.963Z,98802.40
2022-09-28T09:27:15.346Z,98806.40
2022-09-28T09:30:19.444Z,98803.80
2022-09-28T09:33:05.701Z,98804.20
2022-09-28T09:35:47.702Z,98802.60
2022-09-28T09:39:14.131Z,98800.40
2022-09-28T09:42:35.538Z,98804.60
2022-09-28T09:45:55.059Z,98808.20
2022-09-28T09:49:12.007Z,98812.00
2022-09-28T09:52:05.294Z,98814.20
2022-09-28T09:54:58.436Z,98818.00
2022-09-28T09:58:00.205Z,98823.40
2022-09-28T10:00:46.793Z,98826.20
2022-09-28T10:03:30.590Z,98822.60
2022-09-28T10:06:17.988Z,98828.20
2022-09-28T10:08:52.870Z,98819.60
2022-09-28T10:11:28.970Z,98818.20
2022-09-28T10:14:00.072Z,98825.20
2022-09-28T10:16:42.743Z,98824.80
2022-09-28T10:19:19.709Z,98825.60
2022-09-28T10:22:15.269Z,98830.80
2022-09-28T10:24:49.860Z,98826.40
2022-09-28T10:27:27.224Z,98827.60
2022-09-28T10:30:18.610Z,98829.60
2022-09-28T10:32:50.258Z,98831.20
2022-09-28T10:35:25.354Z,98835.00
2022-09-28T10:38:12.256Z,98835.80
2022-09-28T10:41:11.076Z,98831.80
2022-09-28T10:44:11.929Z,98828.80
2022-09-28T10:47:23.263Z,98828.40
2022-09-28T10:50:02.452Z,98829.60
2022-09-28T10:52:45.510Z,98828.80
2022-09-28T10:55:32.811Z,98828.60
2022-09-28T10:58:01.331Z,98826.20
2022-09-28T11:00:44.710Z,98833.20
2022-09-28T11:03:28.815Z,98827.60
2022-09-28T11:06:08.729Z,98827.40
2022-09-28T11:08:44.662Z,98819.60
2022-09-28T11:11:23.137Z,98819.80
2022-09-28T11:14:01.683Z,98817.20
2022-09-28T11:16:36.767Z,98817.00
2022-09-28T11:19:20.882Z,98823.20
2022-09-28T11:21:49.818Z,98824.80
2022-09-28T11:24:20.357Z,98821.80
2022-09-28T11:26:57.322Z,98821.60
2022-09-28T11:29:46.154Z,98817.80
2022-09-28T11:32:45.725Z,98814.00
2022-09-28T11:36:13.032Z,98813.60
2022-09-28T11:38:48.395Z,98817.60
2022-09-28T11:42:16.260Z,98821.00
2022-09-28T11:44:49.691Z,98819.20
2022-09-28T11:47:45.640Z,98822.20
2022-09-28T11:50:27.794Z,98826.40
2022-09-28T11:53:45.271Z,98825.40
2022-09-28T11:56:15.781Z,98830.80
2022-09-28T11:58:54.739Z,98830.80
2022-09-28T12:01:52.304Z,98829.00
2022-09-28T12:04:47.028Z,98830.40
2022-09-28T12:07:35.901Z,98836.00
2022-09-28T12:10:26.288Z,98838.60
2022-09-28T12:13:11.731Z,98841.20
2022-09-28T12:16:27.596Z,98835.20
2022-09-28T12:19:08.604Z,98837.20
2022-09-28T12:21:55.332Z,98834.00
2022-09-28T12:24:42.424Z,98835.80
2022-09-28T12:27:44.187Z,98842.00
2022-09-28T12:30:22.248Z,98839.40
2022-09-28T12:32:52.342Z,98833.00
2022-09-28T12:35:59.981Z,98835.60
2022-09-28T12:39:14.653Z,98834.60
2022-09-28T12:42:41.330Z,98839.60
2022-09-28T12:46:09.927Z,98834.40
2022-09-28T12:53:03.128Z,98837.40
2022-09-28T12:56:03.886Z,98839.60
2022-09-28T12:59:03.780Z,98835.80
2022-09-28T13:02:28.522Z,98831.60
2022-09-28T13:05:57.175Z,98829.20
2022-09-28T13:09:02.538Z,98826.80
2022-09-28T13:11:58.162Z,98821.80
2022-09-28T13:14:44.899Z,98817.60
2022-09-28T13:17:33.757Z,98812.20
2022-09-28T13:20:38.320Z,98814.00
2022-09-28T13:23:11.901Z,98816.40
2022-09-28T13:26:06.908Z,98818.00
2022-09-28T13:28:38.496Z,98822.20
2022-09-28T13:31:09.122Z,98818.80
2022-09-28T13:33:44.852Z,98822.20
2022-09-28T13:36:30.768Z,98818.40
2022-09-28T13:39:01.122Z,98817.00
2022-09-28T13:41:39.010Z,98816.40
2022-09-28T13:44:35.737Z,98822.20
2022-09-28T13:47:50.181Z,98818.80
2022-09-28T13:50:57.606Z,98814.20
2022-09-28T13:53:53.736Z,98817.60
2022-09-28T13:57:10.201Z,98821.60
2022-09-28T14:00:16.880Z,98820.80
2022-09-28T14:03:01.640Z,98819.60
2022-09-28T14:05:35.583Z,98816.80
2022-09-28T14:08:44.589Z,98815.20
2022-09-28T14:11:25.191Z,98816.00
2022-09-28T14:14:08.119Z,98816.80
2022-09-28T14:16:41.037Z,98815.60
2022-09-28T14:19:31.504Z,98818.20
2022-09-28T14:22:37.701Z,98822.80
2022-09-28T14:25:39.327Z,98824.40
2022-09-28T14:28:51.500Z,98822.20
2022-09-28T14:31:29.423Z,98828.00
2022-09-28T14:34:03.475Z,98820.00
2022-09-28T14:37:07.684Z,98816.80
2022-09-28T14:40:18.523Z,98819.60
2022-09-28T14:43:48.497Z,98820.40
2022-09-28T14:46:22.102Z,98821.80
2022-09-28T14:49:03.049Z,98827.00
2022-09-28T14:51:35.835Z,98823.20
2022-09-28T14:54:13.477Z,98824.80
2022-09-28T14:57:09.205Z,98826.80
2022-09-28T14:59:46.218Z,98822.60
2022-09-28T15:02:33.406Z,98818.80
2022-09-28T15:05:19.562Z,98820.60
2022-09-28T15:07:53.854Z,98826.20
2022-09-28T15:10:31.857Z,98829.60
2022-09-28T15:13:21.720Z,98829.80
2022-09-28T15:16:13.779Z,98827.80
2022-09-28T15:19:07.564Z,98828.80
2022-09-28T15:21:47.818Z,98835.80
2022-09-28T15:24:37.176Z,98838.60
2022-09-28T15:27:19.932Z,98836.40
2022-09-28T15:30:19.865Z,98836.80
2022-09-28T15:32:47.973Z,98834.00
2022-09-28T15:35:26.976Z,98834.40
2022-09-28T15:37:55.855Z,98833.00
2022-09-28T15:40:33.713Z,98832.80
2022-09-28T15:43:03.890Z,98829.60
2022-09-28T15:45:40.074Z,98829.60
2022-09-28T15:48:17.223Z,98835.40
2022-09-28T15:51:12.632Z,98834.60
2022-09-28T15:54:16.450Z,98829.40
2022-09-28T15:56:56.139Z,98829.20
2022-09-28T15:59:35.717Z,98824.40
2022-09-28T16:02:19.147Z,98819.40
2022-09-28T16:04:51.893Z,98823.40
2022-09-28T16:07:56.232Z,98827.00
2022-09-28T16:10:35.990Z,98835.80
2022-09-28T16:13:18.993Z,98837.40
2022-09-28T16:15:58.231Z,98826.80
2022-09-28T16:18:35.773Z,98826.20
2022-09-28T16:21:32.134Z,98826.20
2022-09-28T16:24:01.166Z,98816.40
2022-09-28T16:26:40.574Z,98813.80
2022-09-28T16:29:31.106Z,98810.40
2022-09-28T16:32:41.829Z,98812.40
2022-09-28T16:35:12.965Z,98810.20
2022-09-28T16:37:44.954Z,98812.00
2022-09-28T16:40:14.341Z,98804.00
2022-09-28T16:42:49.151Z,98800.00
2022-09-28T16:45:24.109Z,98805.40
2022-09-28T16:47:56.722Z,98807.40
2022-09-28T16:50:28.911Z,98808.00
2022-09-28T16:53:32.545Z,98804.00
2022-09-28T16:56:04.239Z,98800.00
2022-09-28T16:58:33.364Z,98805.80
2022-09-28T17:01:02.133Z,98820.20
2022-09-28T17:03:31.437Z,98818.60
2022-09-28T17:06:08.594Z,98814.60
2022-09-28T17:08:38.269Z,98801.40
2022-09-28T17:11:19.284Z,98804.00
2022-09-28T17:14:00.409Z,98806.60
2022-09-28T17:16:59.927Z,98808.00
2022-09-28T17:19:28.993Z,98800.00
2022-09-28T17:21:57.400Z,98793.60
2022-09-28T17:24:28.350Z,98792.20
2022-09-28T17:26:57.554Z,98799.60
2022-09-28T17:29:28.336Z,98796.60
2022-09-28T17:32:00.610Z,98791.20
2022-09-28T17:34:29.779Z,98795.40
2022-09-28T17:36:58.294Z,98795.00
2022-09-28T17:39:28.399Z,98801.00
2022-09-28T17:41:58.557Z,98802.40
2022-09-28T17:44:27.552Z,98811.20
2022-09-28T17:46:58.165Z,98810.60
2022-09-28T17:49:26.909Z,98808.00
2022-09-28T17:51:57.535Z,98810.40
2022-09-28T17:54:26.766Z,98808.80
2022-09-28T17:56:56.081Z,98816.00
2022-09-28T17:59:27.609Z,98814.80
2022-09-28T18:02:02.549Z,98822.80
2022-09-28T18:04:51.207Z,98824.80
2022-09-28T18:07:20.505Z,98831.60
2022-09-28T18:09:58.454Z,98832.40
2022-09-28T18:12:27.120Z,98839.20
2022-09-28T18:14:58.103Z,98839.20
2022-09-28T18:17:29.285Z,98848.20
2022-09-28T18:20:00.487Z,98850.60
2022-09-28T18:22:32.069Z,98857.80
2022-09-28T18:25:03.940Z,98867.80
2022-09-28T18:27:36.599Z,98875.40
2022-09-28T18:30:10.883Z,98881.60
2022-09-28T18:32:42.576Z,98884.40
2022-09-28T18:35:22.041Z,98891.00
2022-09-28T18:37:53.087Z,98894.20
2022-09-28T18:40:21.869Z,98898.00
2022-09-28T18:42:51.965Z,98900.00
2022-09-28T18:45:20.664Z,98905.80
2022-09-28T18:47:48.949Z,98907.40
2022-09-28T18:50:18.612Z,98913.80
2022-09-28T18:52:47.541Z,98920.60
2022-09-28T18:55:17.430Z,98922.20
2022-09-28T18:57:47.933Z,98923.20
2022-09-28T19:00:16.704Z,98928.20
2022-09-28T19:02:45.759Z,98926.60
2022-09-28T19:05:14.535Z,98925.60
2022-09-28T19:07:49.613Z,98923.60
2022-09-28T19:10:18.756Z,98928.80
2022-09-28T19:12:52.652Z,98924.40
2022-09-28T19:15:28.502Z,98921.20
2022-09-28T19:17:58.347Z,98923.00
2022-09-28T19:20:32.116Z,98917.60
2022-09-28T19:23:05.034Z,98909.20
2022-09-28T19:25:35.661Z,98910.80
2022-09-28T19:28:04.341Z,98903.60
2022-09-28T19:30:37.805Z,98897.20
2022-09-28T19:33:15.669Z,98894.80
2022-09-28T19:35:55.609Z,98880.80
2022-09-28T19:38:32.588Z,98874.80
2022-09-28T19:41:01.568Z,98859.00
2022-09-28T19:43:32.189Z,98850.20
2022-09-28T19:46:06.570Z,98852.80
2022-09-28T19:48:42.431Z,98865.20
2022-09-28T19:51:12.247Z,98865.80
2022-09-28T19:53:41.646Z,98866.80
2022-09-28T19:56:09.660Z,98858.20
2022-09-28T19:58:40.576Z,98849.60
2022-09-28T20:01:09.739Z,98855.60
2022-09-28T20:03:39.766Z,98862.00
2022-09-28T20:06:08.417Z,98859.00
2022-09-28T20:08:40.218Z,98859.00
2022-09-28T20:11:13.048Z,98861.60
2022-09-28T20:13:42.382Z,98859.20
2022-09-28T20:16:19.088Z,98865.00
2022-09-28T20:18:50.770Z,98862.80
2022-09-28T20:21:25.950Z,98862.20
2022-09-28T20:23:59.506Z,98865.40
2022-09-28T20:26:30.130Z,98867.20
2022-09-28T20:29:03.722Z,98869.60
2022-09-28T20:31:33.456Z,98871.80
2022-09-28T20:34:05.546Z,98871.20
2022-09-28T20:36:37.250Z,98873.00
2022-09-28T20:39:06.249Z,98865.20
2022-09-28T20:41:37.329Z,98857.40
2022-09-28T20:44:12.179Z,98861.00
2022-09-28T20:46:41.566Z,98855.80
2022-09-28T20:49:10.896Z,98860.00
2022-09-28T20:51:39.558Z,98857.40
2022-09-28T20:57:17.369Z,98859.00
2022-09-28T20:59:53.650Z,98856.20
2022-09-28T21:02:26.401Z,98860.80
2022-09-28T21:04:57.206Z,98857.20
2022-09-28T21:07:28.997Z,98860.20
2022-09-28T21:09:57.999Z,98854.60
2022-09-28T21:12:29.799Z,98855.60
2022-09-28T21:15:04.893Z,98861.40
2022-09-28T21:17:37.252Z,98864.80
2022-09-28T21:20:21.203Z,98869.00
2022-09-28T21:22:56.342Z,98869.60
2022-09-28T21:25:25.987Z,98869.20
2022-09-28T21:28:00.378Z,98869.00
2022-09-28T21:30:28.818Z,98867.00
2022-09-28T21:32:58.254Z,98865.40
2022-09-28T21:35:39.478Z,98866.60
2022-09-28T21:38:08.796Z,98864.60
2022-09-28T21:40:37.050Z,98868.40
2022-09-28T21:43:06.517Z,98865.60
2022-09-28T21:45:34.903Z,98864.40
2022-09-28T21:48:06.890Z,98865.00
2022-09-28T21:50:36.872Z,98876.60
2022-09-28T21:53:04.940Z,98875.60
2022-09-28T21:55:33.483Z,98878.40
2022-09-28T21:58:04.561Z,98888.00
2022-09-28T22:00:35.460Z,98891.80
2022-09-28T22:03:06.415Z,98891.20
2022-09-28T22:05:35.179Z,98892.80
2022-09-28T22:08:05.755Z,98888.00
2022-09-28T22:10:36.843Z,98896.80
2022-09-28T22:13:06.038Z,98898.00
2022-09-28T22:15:34.321Z,98898.20
2022-09-28T22:18:03.899Z,98906.20
2022-09-28T22:20:35.358Z,98913.20
2022-09-28T22:23:04.008Z,98917.00
2022-09-28T22:25:33.164Z,98913.80
2022-09-28T22:28:01.826Z,98909.40
2022-09-28T22:30:30.163Z,98912.60
2022-09-28T22:33:00.786Z,98909.20
2022-09-28T22:35:29.314Z,98909.20
2022-09-28T22:38:00.055Z,98902.60
2022-09-28T22:40:29.733Z,98905.40
2022-09-28T22:42:58.242Z,98903.00
2022-09-28T22:45:27.346Z,98909.60
2022-09-28T22:47:56.569Z,98919.00
2022-09-28T22:50:27.061Z,98921.80
2022-09-28T22:52:58.011Z,98922.20
2022-09-28T22:55:33.612Z,98918.60
2022-09-28T22:58:03.497Z,98913.80
2022-09-28T23:00:32.844Z,98909.40
2022-09-28T23:03:02.354Z,98908.80
2022-09-28T23:05:32.041Z,98906.60
2022-09-28T23:08:03.588Z,98912.40
2022-09-28T23:10:34.098Z,98912.20
2022-09-28T23:13:04.221Z,98915.40
2022-09-28T23:15:34.443Z,98920.80
2022-09-28T23:18:06.184Z,98929.80
2022-09-28T23:20:36.645Z,98930.40
2022-09-28T23:23:05.914Z,98925.20
2022-09-28T23:25:34.783Z,98924.60
2022-09-28T23:28:02.840Z,98934.40
2022-09-28T23:30:37.582Z,98932.80
2022-09-28T23:33:07.248Z,98927.60
2022-09-28T23:35:41.931Z,98924.00
2022-09-28T23:38:20.918Z,98928.20
2022-09-28T23:40:49.415Z,98928.60
2022-09-28T23:43:19.220Z,98933.00
2022-09-28T23:45:50.138Z,98939.80
2022-09-28T23:48:19.225Z,98945.40
2022-09-28T23:50:50.141Z,98952.60
2022-09-28T23:53:19.005Z,98956.00
2022-09-28T23:55:47.379Z,98960.40
2022-09-28T23:58:20.430Z,98961.60
